createdAt,value
2022-08-17T00:02:25.151Z,98.29
2022-08-17T00:04:55.089Z,98.78
2022-08-17T00:07:22.387Z,99.21
2022-08-17T00:09:49.372Z,99.19
2022-08-17T00:12:42.563Z,99.31
2022-08-17T00:15:04.971Z,99.38
2022-08-17T00:17:31.832Z,99.47
2022-08-17T00:19:59.755Z,99.73
2022-08-17T00:22:32.623Z,99.76
2022-08-17T00:25:07.496Z,99.67
2022-08-17T00:27:35.298Z,99.76
2022-08-17T00:30:02.600Z,99.93
2022-08-17T00:33:22.800Z,99.82
2022-08-17T00:35:25.122Z,99.80
2022-08-17T00:37:52.583Z,99.89
2022-08-17T00:40:20.228Z,99.72
2022-08-17T00:42:49.010Z,100.00
2022-08-17T00:45:17.885Z,100.00
2022-08-17T00:47:44.747Z,100.00
2022-08-17T00:50:14.802Z,99.92
2022-08-17T00:52:52.464Z,100.00
2022-08-17T00:55:20.232Z,100.00
2022-08-17T00:57:54.761Z,100.00
2022-08-17T01:00:30.006Z,100.00
2022-08-17T01:03:10.187Z,100.00
2022-08-17T01:05:42.377Z,100.00
2022-08-17T01:08:13.359Z,100.00
2022-08-17T01:10:59.259Z,100.00
2022-08-17T01:13:40.809Z,100.00
2022-08-17T01:16:16.158Z,100.00
2022-08-17T01:18:45.542Z,100.00
2022-08-17T01:22:03.119Z,100.00
2022-08-17T01:24:30.760Z,100.00
2022-08-17T01:27:00.812Z,100.00
2022-08-17T01:29:30.810Z,100.00
2022-08-17T01:32:01.997Z,100.00
2022-08-17T01:34:32.775Z,100.00
2022-08-17T01:37:11.297Z,100.00
2022-08-17T01:39:43.699Z,100.00
2022-08-17T01:42:20.313Z,100.00
2022-08-17T01:44:47.143Z,100.00
2022-08-17T01:47:14.154Z,100.00
2022-08-17T01:49:41.007Z,100.00
2022-08-17T01:52:10.996Z,100.00
2022-08-17T01:54:41.389Z,100.00
2022-08-17T01:57:09.337Z,100.00
2022-08-17T01:59:36.570Z,100.00
2022-08-17T02:02:04.902Z,100.00
2022-08-17T02:04:32.101Z,100.00
2022-08-17T02:06:58.918Z,100.00
2022-08-17T02:09:29.841Z,100.00
2022-08-17T02:11:59.246Z,100.00
2022-08-17T02:14:26.553Z,100.00
2022-08-17T02:16:54.231Z,100.00
2022-08-17T02:19:22.048Z,100.00
2022-08-17T02:21:52.018Z,100.00
2022-08-17T02:24:58.378Z,100.00
2022-08-17T02:27:13.729Z,100.00
2022-08-17T02:29:40.718Z,100.00
2022-08-17T02:32:20.884Z,100.00
2022-08-17T02:34:54.759Z,100.00
2022-08-17T02:37:21.540Z,100.00
2022-08-17T02:39:48.384Z,100.00
2022-08-17T02:42:15.698Z,100.00
2022-08-17T02:44:42.516Z,100.00
2022-08-17T02:47:10.876Z,100.00
2022-08-17T02:49:38.205Z,100.00
2022-08-17T02:52:07.135Z,100.00
2022-08-17T02:54:39.984Z,100.00
2022-08-17T02:57:10.169Z,100.00
2022-08-17T02:59:38.690Z,100.00
2022-08-17T03:02:11.253Z,100.00
2022-08-17T03:04:38.837Z,100.00
2022-08-17T03:07:05.798Z,100.00
2022-08-17T03:09:32.930Z,100.00
2022-08-17T03:12:08.382Z,100.00
2022-08-17T03:14:41.760Z,100.00
2022-08-17T03:17:10.740Z,100.00
2022-08-17T03:19:43.084Z,100.00
2022-08-17T03:22:36.623Z,100.00
2022-08-17T03:24:57.976Z,100.00
2022-08-17T03:27:24.772Z,100.00
2022-08-17T03:29:51.581Z,100.00
2022-08-17T03:32:20.595Z,100.00
2022-08-17T03:34:47.815Z,100.00
2022-08-17T03:37:14.849Z,100.00
2022-08-17T03:39:41.853Z,100.00
2022-08-17T03:42:32.028Z,100.00
2022-08-17T03:45:01.168Z,100.00
2022-08-17T03:47:46.845Z,100.00
2022-08-17T03:50:33.824Z,100.00
2022-08-17T03:53:22.264Z,100.00
2022-08-17T03:56:07.994Z,98.55
2022-08-17T03:58:37.459Z,95.96
2022-08-17T04:01:07.631Z,91.24
2022-08-17T04:03:34.609Z,89.12
2022-08-17T04:06:02.310Z,83.23
2022-08-17T04:08:30.603Z,83.16
2022-08-17T04:10:58.272Z,81.94
2022-08-17T04:13:25.723Z,80.90
2022-08-17T04:15:52.871Z,78.84
2022-08-17T04:18:19.996Z,74.77
2022-08-17T04:20:47.291Z,74.00
2022-08-17T04:23:19.192Z,69.17
2022-08-17T04:25:49.806Z,66.68
2022-08-17T04:28:18.722Z,63.61
2022-08-17T04:30:47.402Z,61.91
2022-08-17T04:33:20.856Z,60.57
2022-08-17T04:35:56.728Z,59.61
2022-08-17T04:38:26.545Z,60.86
2022-08-17T04:41:12.303Z,59.62
2022-08-17T04:43:40.966Z,57.80
2022-08-17T04:46:11.398Z,55.54
2022-08-17T04:48:42.682Z,51.90
2022-08-17T04:51:17.198Z,49.22
2022-08-17T04:53:46.295Z,47.40
2022-08-17T04:56:21.091Z,45.42
2022-08-17T04:58:51.910Z,43.94
2022-08-17T05:01:23.676Z,42.71
2022-08-17T05:03:53.676Z,42.08
2022-08-17T05:06:20.709Z,41.83
2022-08-17T05:08:47.792Z,40.96
2022-08-17T05:11:15.028Z,42.59
2022-08-17T05:13:42.217Z,43.08
2022-08-17T05:16:09.278Z,42.67
2022-08-17T05:18:38.806Z,42.94
2022-08-17T05:21:06.930Z,43.42
2022-08-17T05:23:41.633Z,42.85
2022-08-17T05:26:22.551Z,42.17
2022-08-17T05:28:54.667Z,40.72
2022-08-17T05:31:24.709Z,39.76
2022-08-17T05:33:51.593Z,40.11
2022-08-17T05:36:43.305Z,39.42
2022-08-17T05:39:05.444Z,39.45
2022-08-17T05:41:32.294Z,39.18
2022-08-17T05:43:59.324Z,38.23
2022-08-17T05:46:31.802Z,37.89
2022-08-17T05:49:03.635Z,36.52
2022-08-17T05:51:49.262Z,34.55
2022-08-17T05:54:47.334Z,34.61
2022-08-17T05:57:35.620Z,34.76
2022-08-17T06:00:14.380Z,34.74
2022-08-17T06:02:58.228Z,33.88
2022-08-17T06:05:48.418Z,33.56
2022-08-17T06:08:29.156Z,33.81
2022-08-17T06:11:01.623Z,34.85
2022-08-17T06:13:42.226Z,34.85
2022-08-17T06:16:33.291Z,36.83
2022-08-17T06:19:17.249Z,39.34
2022-08-17T06:21:48.475Z,41.13
2022-08-17T06:24:34.353Z,40.50
2022-08-17T06:27:23.556Z,40.84
2022-08-17T06:30:09.379Z,39.49
2022-08-17T06:32:38.719Z,38.18
2022-08-17T06:35:07.622Z,38.03
2022-08-17T06:37:53.074Z,38.87
2022-08-17T06:40:46.281Z,38.40
2022-08-17T06:43:34.333Z,39.27
2022-08-17T06:46:12.956Z,38.10
2022-08-17T06:49:16.980Z,37.91
2022-08-17T06:51:52.189Z,37.07
2022-08-17T06:54:32.000Z,36.23
2022-08-17T06:57:23.171Z,34.78
2022-08-17T06:59:56.723Z,34.57
2022-08-17T07:02:51.512Z,34.61
2022-08-17T07:05:24.337Z,33.89
2022-08-17T07:08:11.661Z,33.07
2022-08-17T07:10:44.566Z,33.13
2022-08-17T07:13:44.502Z,32.20
2022-08-17T07:16:30.904Z,31.88
2022-08-17T07:18:59.476Z,32.43
2022-08-17T07:21:40.865Z,33.10
2022-08-17T07:24:29.449Z,33.65
2022-08-17T07:27:16.546Z,34.21
2022-08-17T07:29:49.610Z,34.42
2022-08-17T07:32:20.234Z,34.95
2022-08-17T07:35:07.517Z,34.24
2022-08-17T07:37:44.610Z,33.95
2022-08-17T07:40:19.274Z,33.52
2022-08-17T07:43:08.497Z,32.62
2022-08-17T07:46:12.017Z,31.99
2022-08-17T07:48:41.488Z,31.84
2022-08-17T07:51:22.566Z,30.29
2022-08-17T07:53:49.517Z,28.88
2022-08-17T07:56:51.122Z,26.83
2022-08-17T07:59:33.197Z,26.60
2022-08-17T08:02:08.149Z,26.37
2022-08-17T08:07:31.924Z,25.16
2022-08-17T08:10:13.114Z,24.46
2022-08-17T08:12:43.658Z,23.65
2022-08-17T08:15:15.370Z,22.59
2022-08-17T08:17:50.296Z,23.65
2022-08-17T08:20:42.441Z,23.50
2022-08-17T08:23:19.133Z,23.09
2022-08-17T08:26:03.205Z,23.45
2022-08-17T08:28:36.608Z,24.85
2022-08-17T08:31:24.494Z,24.74
2022-08-17T08:34:01.141Z,22.97
2022-08-17T08:37:15.991Z,22.78
2022-08-17T08:39:54.031Z,23.14
2022-08-17T08:43:10.675Z,22.05
2022-08-17T08:46:07.040Z,22.20
2022-08-17T08:49:00.974Z,21.72
2022-08-17T08:51:53.337Z,21.37
2022-08-17T08:55:02.025Z,21.06
2022-08-17T08:57:36.643Z,21.79
2022-08-17T09:00:14.796Z,21.25
2022-08-17T09:02:59.903Z,21.29
2022-08-17T09:05:52.807Z,21.72
2022-08-17T09:08:29.932Z,21.94
2022-08-17T09:11:00.669Z,22.44
2022-08-17T09:14:02.879Z,22.67
2022-08-17T09:16:36.325Z,21.29
2022-08-17T09:19:15.964Z,22.03
2022-08-17T09:21:52.759Z,20.83
2022-08-17T09:24:32.017Z,21.17
2022-08-17T09:27:08.795Z,20.50
2022-08-17T09:29:42.821Z,19.24
2022-08-17T09:32:17.688Z,18.82
2022-08-17T09:34:52.661Z,19.13
2022-08-17T09:37:19.481Z,19.32
2022-08-17T09:40:15.570Z,20.17
2022-08-17T09:43:04.646Z,19.49
2022-08-17T09:45:35.409Z,19.49
2022-08-17T09:48:10.960Z,19.37
2022-08-17T09:51:07.766Z,20.16
2022-08-17T09:53:39.122Z,20.54
2022-08-17T09:56:20.910Z,21.40
2022-08-17T09:59:22.239Z,21.95
2022-08-17T10:02:13.705Z,21.68
2022-08-17T10:04:40.902Z,22.55
2022-08-17T10:07:15.357Z,22.28
2022-08-17T10:09:57.157Z,23.02
2022-08-17T10:12:46.358Z,22.83
2022-08-17T10:15:43.301Z,21.08
2022-08-17T10:18:31.961Z,21.39
2022-08-17T10:21:26.424Z,21.14
2022-08-17T10:24:37.362Z,20.77
2022-08-17T10:27:11.120Z,19.64
2022-08-17T10:30:00.999Z,18.50
2022-08-17T10:32:31.412Z,17.76
2022-08-17T10:35:29.190Z,17.11
2022-08-17T10:38:12.673Z,17.55
2022-08-17T10:41:18.053Z,18.33
2022-08-17T10:44:39.319Z,18.74
2022-08-17T10:47:09.764Z,19.47
2022-08-17T10:49:39.533Z,20.54
2022-08-17T10:52:41.472Z,21.39
2022-08-17T10:55:17.913Z,22.74
2022-08-17T10:57:50.297Z,23.72
2022-08-17T11:00:28.447Z,23.83
2022-08-17T11:02:57.500Z,24.03
2022-08-17T11:06:12.782Z,24.27
2022-08-17T11:09:08.914Z,24.34
2022-08-17T11:11:58.876Z,24.94
2022-08-17T11:14:34.882Z,26.51
2022-08-17T11:17:09.174Z,26.43
2022-08-17T11:20:13.439Z,24.29
2022-08-17T11:23:25.509Z,24.27
2022-08-17T11:25:55.570Z,24.79
2022-08-17T11:28:25.474Z,25.82
2022-08-17T11:30:57.690Z,26.19
2022-08-17T11:33:36.644Z,25.55
2022-08-17T11:36:12.710Z,25.76
2022-08-17T11:39:04.869Z,25.89
2022-08-17T11:41:55.107Z,25.96
2022-08-17T11:44:40.545Z,26.27
2022-08-17T11:48:23.883Z,25.74
2022-08-17T11:51:19.380Z,25.54
2022-08-17T11:53:46.158Z,26.35
2022-08-17T11:56:38.416Z,26.88
2022-08-17T11:59:39.188Z,26.74
2022-08-17T12:02:34.975Z,25.82
2022-08-17T12:05:04.507Z,24.93
2022-08-17T12:07:43.717Z,24.64
2022-08-17T12:10:13.133Z,24.74
2022-08-17T12:12:44.203Z,24.98
2022-08-17T12:15:28.852Z,24.11
2022-08-17T12:17:57.376Z,23.85
2022-08-17T12:20:28.382Z,24.08
2022-08-17T12:23:09.937Z,23.92
2022-08-17T12:26:01.062Z,24.23
2022-08-17T12:28:31.758Z,24.55
2022-08-17T12:31:02.989Z,25.26
2022-08-17T12:33:30.527Z,26.03
2022-08-17T12:36:05.098Z,27.04
2022-08-17T12:38:36.122Z,28.68
2022-08-17T12:41:24.911Z,30.40
2022-08-17T12:44:12.336Z,31.08
2022-08-17T12:47:23.294Z,30.70
2022-08-17T12:49:55.252Z,31.46
2022-08-17T12:52:27.298Z,31.12
2022-08-17T12:55:07.132Z,31.41
2022-08-17T12:57:42.659Z,31.81
2022-08-17T13:00:21.522Z,32.14
2022-08-17T13:03:07.918Z,32.20
2022-08-17T13:05:39.818Z,32.60
2022-08-17T13:08:18.327Z,32.07
2022-08-17T13:10:55.670Z,32.51
2022-08-17T13:13:29.071Z,31.22
2022-08-17T13:15:59.636Z,31.07
2022-08-17T13:18:42.905Z,30.24
2022-08-17T13:21:19.008Z,30.03
2022-08-17T13:23:58.121Z,30.40
2022-08-17T13:26:50.013Z,29.82
2022-08-17T13:29:28.747Z,30.93
2022-08-17T13:32:16.027Z,30.60
2022-08-17T13:35:12.591Z,30.65
2022-08-17T13:37:36.993Z,31.35
2022-08-17T13:40:03.965Z,30.63
2022-08-17T13:42:53.353Z,30.82
2022-08-17T13:53:14.249Z,30.54
2022-08-17T13:56:37.759Z,30.65
2022-08-17T13:59:00.542Z,31.13
2022-08-17T14:01:44.263Z,32.01
2022-08-17T14:04:21.481Z,32.23
2022-08-17T14:07:22.509Z,32.85
2022-08-17T14:09:55.056Z,33.34
2022-08-17T14:12:27.636Z,34.07
2022-08-17T14:14:59.818Z,34.44
2022-08-17T14:17:36.364Z,35.13
2022-08-17T14:20:10.790Z,35.90
2022-08-17T14:22:41.059Z,37.02
2022-08-17T14:25:10.451Z,37.80
2022-08-17T14:27:53.268Z,38.28
2022-08-17T14:30:22.995Z,38.47
2022-08-17T14:32:52.132Z,38.88
2022-08-17T14:35:22.123Z,39.73
2022-08-17T14:37:49.672Z,39.81
2022-08-17T14:40:20.473Z,40.52
2022-08-17T14:42:48.137Z,41.34
2022-08-17T14:45:30.172Z,41.92
2022-08-17T14:48:08.613Z,42.07
2022-08-17T14:50:38.869Z,42.48
2022-08-17T14:53:08.272Z,41.64
2022-08-17T14:55:37.288Z,41.34
2022-08-17T14:58:04.363Z,42.18
2022-08-17T15:00:32.524Z,40.99
2022-08-17T15:03:01.259Z,41.79
2022-08-17T15:05:32.170Z,40.88
2022-08-17T15:08:01.231Z,40.19
2022-08-17T15:10:29.373Z,39.93
2022-08-17T15:12:58.447Z,40.54
2022-08-17T15:15:25.533Z,40.31
2022-08-17T15:17:52.427Z,40.47
2022-08-17T15:20:23.889Z,40.33
2022-08-17T15:22:55.435Z,40.25
2022-08-17T15:25:23.661Z,41.18
2022-08-17T15:27:50.936Z,41.38
2022-08-17T15:30:18.076Z,41.63
2022-08-17T15:32:50.653Z,41.32
2022-08-17T15:35:25.167Z,41.76
2022-08-17T15:38:11.817Z,41.93
2022-08-17T15:40:43.093Z,41.86
2022-08-17T15:43:13.885Z,43.41
2022-08-17T15:45:41.101Z,44.76
2022-08-17T15:48:08.991Z,44.80
2022-08-17T15:50:36.267Z,45.12
2022-08-17T15:53:04.970Z,45.37
2022-08-17T15:55:33.422Z,46.16
2022-08-17T15:58:01.857Z,46.49
2022-08-17T16:00:29.553Z,46.77
2022-08-17T16:03:14.491Z,47.12
2022-08-17T16:05:46.734Z,47.58
2022-08-17T16:08:20.048Z,47.92
2022-08-17T16:10:47.836Z,47.96
2022-08-17T16:13:17.442Z,48.29
2022-08-17T16:15:49.720Z,49.01
2022-08-17T16:18:20.625Z,49.61
2022-08-17T16:20:47.652Z,49.84
2022-08-17T16:23:19.920Z,50.35
2022-08-17T16:25:52.828Z,50.76
2022-08-17T16:28:22.638Z,51.53
2022-08-17T16:31:02.722Z,52.07
2022-08-17T16:33:30.923Z,52.67
2022-08-17T16:35:58.262Z,52.68
2022-08-17T16:38:25.143Z,52.93
2022-08-17T16:40:52.010Z,53.36
2022-08-17T16:43:19.371Z,53.72
2022-08-17T16:45:51.849Z,53.99
2022-08-17T16:48:19.796Z,54.52
2022-08-17T16:51:03.294Z,54.99
2022-08-17T16:53:31.445Z,55.36
2022-08-17T16:55:58.514Z,56.04
2022-08-17T16:58:25.430Z,56.71
2022-08-17T17:00:52.382Z,57.00
2022-08-17T17:03:23.529Z,57.32
2022-08-17T17:06:28.566Z,57.97
2022-08-17T17:21:15.275Z,63.07
2022-08-17T17:24:09.578Z,64.71
2022-08-17T17:26:53.968Z,65.27
2022-08-17T17:29:47.650Z,65.82
2022-08-17T17:32:31.039Z,66.24
2022-08-17T17:35:07.017Z,66.47
2022-08-17T17:37:35.771Z,66.65
2022-08-17T17:40:24.269Z,66.91
2022-08-17T17:43:14.377Z,67.03
2022-08-17T17:46:27.114Z,66.95
2022-08-17T17:48:57.518Z,67.38
2022-08-17T17:52:11.020Z,67.63
2022-08-17T17:54:55.806Z,67.95
2022-08-17T17:57:51.698Z,68.27
2022-08-17T18:00:29.638Z,68.28
2022-08-17T18:03:18.059Z,68.46
2022-08-17T18:05:50.606Z,68.48
2022-08-17T18:08:36.241Z,68.76
2022-08-17T18:11:24.623Z,69.11
2022-08-17T18:14:19.781Z,69.46
2022-08-17T18:16:48.164Z,69.48
2022-08-17T18:19:25.116Z,69.62
2022-08-17T18:22:04.283Z,69.93
2022-08-17T18:24:39.983Z,69.91
2022-08-17T18:27:34.667Z,70.16
2022-08-17T18:30:28.923Z,70.28
2022-08-17T18:33:23.833Z,70.59
2022-08-17T18:35:58.519Z,70.44
2022-08-17T18:38:35.338Z,70.63
2022-08-17T18:41:21.270Z,70.93
2022-08-17T18:44:31.493Z,70.95
2022-08-17T18:47:18.697Z,71.17
2022-08-17T18:49:56.418Z,71.29
2022-08-17T18:52:29.021Z,71.38
2022-08-17T18:54:58.876Z,71.38
2022-08-17T18:57:34.691Z,72.34
2022-08-17T19:00:10.168Z,72.71
2022-08-17T19:03:00.682Z,73.80
2022-08-17T19:05:41.535Z,74.19
2022-08-17T19:08:31.839Z,74.71
2022-08-17T19:10:59.964Z,74.91
2022-08-17T19:13:37.495Z,75.51
2022-08-17T19:16:18.645Z,76.32
2022-08-17T19:18:48.814Z,76.71
2022-08-17T19:21:20.606Z,77.14
2022-08-17T19:24:06.661Z,77.49
2022-08-17T19:26:54.896Z,77.74
2022-08-17T19:30:05.532Z,78.01
2022-08-17T19:32:35.829Z,78.31
2022-08-17T19:35:04.893Z,78.59
2022-08-17T19:38:06.268Z,79.00
2022-08-17T19:41:07.511Z,79.42
2022-08-17T19:43:53.229Z,79.78
2022-08-17T19:46:48.544Z,80.04
2022-08-17T19:49:22.794Z,80.36
2022-08-17T19:52:11.259Z,80.69
2022-08-17T19:54:48.024Z,80.98
2022-08-17T19:57:23.995Z,81.34
2022-08-17T20:00:03.201Z,81.81
2022-08-17T20:02:34.033Z,81.93
2022-08-17T20:05:07.273Z,82.11
2022-08-17T20:07:59.129Z,82.70
2022-08-17T20:10:48.118Z,83.12
2022-08-17T20:13:35.313Z,83.59
2022-08-17T20:16:04.160Z,83.71
2022-08-17T20:18:55.400Z,84.25
2022-08-17T20:21:37.126Z,84.37
2022-08-17T20:24:20.591Z,84.84
2022-08-17T20:26:58.335Z,85.02
2022-08-17T20:29:37.716Z,85.28
2022-08-17T20:32:18.314Z,85.63
2022-08-17T20:34:47.668Z,86.03
2022-08-17T20:37:14.565Z,86.27
2022-08-17T20:39:45.639Z,86.79
2022-08-17T20:42:15.659Z,87.10
2022-08-17T20:44:43.489Z,87.49
2022-08-17T20:47:18.414Z,87.63
2022-08-17T20:49:45.314Z,87.72
2022-08-17T20:52:31.872Z,88.06
2022-08-17T20:54:58.917Z,88.27
2022-08-17T20:57:34.347Z,88.68
2022-08-17T21:00:17.934Z,89.11
2022-08-17T21:02:51.448Z,89.47
2022-08-17T21:05:48.945Z,89.81
2022-08-17T21:08:33.617Z,89.76
2022-08-17T21:11:21.648Z,90.10
2022-08-17T21:14:22.526Z,90.54
2022-08-17T21:17:02.458Z,90.79
2022-08-17T21:20:12.558Z,90.88
2022-08-17T21:22:48.000Z,91.02
2022-08-17T21:25:24.602Z,91.47
2022-08-17T21:28:10.090Z,92.14
2022-08-17T21:30:39.456Z,92.49
2022-08-17T21:33:32.554Z,92.71
2022-08-17T21:35:59.316Z,92.69
2022-08-17T21:38:51.562Z,92.81
2022-08-17T21:41:27.297Z,93.10
2022-08-17T21:44:01.814Z,93.21
2022-08-17T21:46:39.322Z,93.35
2022-08-17T21:49:13.786Z,93.39
2022-08-17T21:51:53.844Z,93.57
2022-08-17T21:54:25.296Z,93.75
2022-08-17T21:56:53.125Z,93.69
2022-08-17T21:59:19.908Z,93.54
2022-08-17T22:02:08.698Z,93.58
2022-08-17T22:04:38.772Z,93.82
2022-08-17T22:07:10.196Z,93.85
2022-08-17T22:09:44.883Z,94.07
2022-08-17T22:12:22.818Z,94.37
2022-08-17T22:14:55.422Z,94.52
2022-08-17T22:17:26.161Z,94.56
2022-08-17T22:20:00.501Z,95.08
2022-08-17T22:22:57.508Z,95.36
2022-08-17T22:25:26.387Z,95.14
2022-08-17T22:27:56.734Z,95.22
2022-08-17T22:30:35.364Z,95.31
2022-08-17T22:33:31.486Z,95.45
2022-08-17T22:36:30.275Z,95.59
2022-08-17T22:39:01.852Z,95.71
2022-08-17T22:41:51.434Z,96.10
2022-08-17T22:44:23.351Z,95.88
2022-08-17T22:46:53.189Z,95.90
2022-08-17T22:49:54.199Z,96.82
2022-08-17T22:52:32.291Z,96.94
2022-08-17T22:55:35.151Z,97.20
2022-08-17T22:58:28.385Z,97.61
2022-08-17T23:00:55.837Z,98.13
2022-08-17T23:03:28.098Z,98.66
2022-08-17T23:06:05.821Z,99.05
2022-08-17T23:08:35.689Z,98.83
2022-08-17T23:11:02.746Z,98.88
2022-08-17T23:13:33.496Z,98.67
2022-08-17T23:16:00.330Z,99.10
2022-08-17T23:18:27.431Z,100.00
2022-08-17T23:20:54.341Z,100.00
2022-08-17T23:23:23.723Z,100.00
2022-08-17T23:25:50.777Z,100.00
2022-08-17T23:28:17.647Z,100.00
2022-08-17T23:30:46.676Z,100.00
2022-08-17T23:33:26.551Z,100.00
2022-08-17T23:35:54.119Z,100.00
2022-08-17T23:38:21.914Z,100.00
2022-08-17T23:40:48.693Z,100.00
2022-08-17T23:43:24.338Z,100.00
2022-08-17T23:45:54.635Z,100.00
2022-08-17T23:48:35.096Z,100.00
2022-08-17T23:51:08.809Z,100.00
2022-08-17T23:53:37.215Z,100.00
2022-08-17T23:56:10.317Z,100.00
2022-08-17T23:58:39.262Z,100.00
